Oakland, Texas
Current Conditions -  °F | °C
As of 2:15 PM on Thursday 30 Oct 2014 (Local Time) from K66R Reporting Station
Clear Clear  
Wind Chill: 80°   Ceiling: Unl
Heat Index: 81°   Visibility: 10mi
Dew Point: 61°   Wind: 6mph
Humidity: 53%   Direction: 320°NW
Pressure: 30.07"   Gusts: NA
Location:  29.6°N, 96.83°W
Report Text: K66R 301915Z AUTO 32005KT 10SM CLR 26/16 A3007 RMK AO2 T02640160
Loading
Personal Weather Stations






























Interactive Weather Map
Tropical Storm Tracking
New forecast layout! Learn more

10-Day Weather Forecast

Advertisements
Track Severe Weather on mobile